This demonstration page uses our WeatherBlox Daily Observations layout. Learn more.

Left ArrowRight Arrow

39.01783, -85.05884

Hourly Observations for February 19, 2020

Temp ( °F °C ) Dew Point ( °F °C ) Humidity (%) Winds ( mph kmh ) Pressure ( in mb ) Visibility ( mi km ) Precip ( " mm )
12:52 am 00:52 Clear 31 -0.6 27 -2.8 85 85 NNW 10 17 30.35 1028 7 11.26538 0 0
1:52 am 01:52 Clear 30 -1.1 26 -3.3 85 85 NNW 9 15 30.37 1029 7 11.26538 0 0
2:52 am 02:52 Clear with Mist and Fog 29 -1.7 25 -3.9 85 85 N 6 9 30.37 1029 6 9.65604 0 0
3:52 am 03:52 Clear with Mist and Fog 29 -1.7 25 -3.9 85 85 NNW 5 7 30.38 1029 6 9.65604 0 0
4:52 am 04:52 Clear with Mist and Fog 28 -2.2 24 -4.4 85 85 NNW 5 7 30.4 1030 5 8.0467 0 0
5:52 am 05:52 Clear with Mist and Fog 29 -1.7 25 -3.9 85 85 NNW 5 7 30.42 1030 5 8.0467 0 0
6:52 am 06:52 Clear with Mist and Fog 27 -2.8 24 -4.4 89 89 NNW 7 11 30.45 1031 5 8.0467 0 0
7:52 am 07:52 Partly Cloudy with Mist and Fog 26 -3.3 23 -5 88 88 N 7 11 30.48 1032 5 8.0467 0 0
8:52 am 08:52 Sunny 30 -1.1 25 -3.9 82 82 N 10 17 30.5 1033 7 11.26538 0 0
9:52 am 09:52 Mostly Sunny 32 0 24 -4.4 73 73 N 10 17 30.52 1033 8 12.87472 0 0
10:52 am 10:52 Mostly Cloudy 34 1.1 24 -4.4 67 67 NNE 5 7 30.53 1034 9 14.48406 0 0
11:52 am 11:52 Mostly Cloudy 38 3.3 24 -4.4 57 57 NW 5 7 30.53 1034 10 16.0934 0 0
12:52 pm 12:52 Mostly Cloudy 40 4.4 22 -5.6 49 49 N 6 9 30.52 1033 10 16.0934 0 0
1:52 pm 13:52 Partly Cloudy 43 6.1 23 -5 45 45 undefined N/A 30.5 1033 10 16.0934 0 0
2:52 pm 14:52 Mostly Sunny 43 6.1 21 -6.1 42 42 N 7 11 30.49 1032 10 16.0934 0 0
3:52 pm 15:52 Partly Cloudy 44 6.7 20 -6.7 38 38 N 9 15 30.47 1032 10 16.0934 0 0
4:52 pm 16:52 Partly Cloudy 43 6.1 19 -7.2 38 38 NW 5 7 30.48 1032 10 16.0934 0 0
5:52 pm 17:52 Mostly Sunny 41 5 21 -6.1 45 45 NNW 9 15 30.48 1032 10 16.0934 0 0
6:52 pm 18:52 Mostly Cloudy 37 2.8 22 -5.6 54 54 N 8 13 30.48 1032 10 16.0934 0 0
7:52 pm 19:52 Partly Cloudy 36 2.2 22 -5.6 57 57 NE 3 6 30.5 1033 10 16.0934 0 0
8:52 pm 20:52 Cloudy 34 1.1 22 -5.6 61 61 NNE 7 11 30.49 1032 10 16.0934 0 0
9:52 pm 21:52 Cloudy 33 0.6 22 -5.6 64 64 NNE 6 9 30.5 1033 10 16.0934 0 0
10:52 pm 22:52 Cloudy 32 0 22 -5.6 66 66 N 10 17 30.5 1033 10 16.0934 0 0
11:52 pm 23:52 Cloudy 32 0 21 -6.1 64 64 NE 7 11 30.5 1033 10 16.0934 0 0

Powered by AerisWeather